Time;durP1;ratioP1;P1;durP2;ratioP2;P2;SDS_P1;SDS_P2;PMS_P1;PMS_P2;Temp;Humidity;BMP_temperature;BMP_pressure;BME280_temperature;BME280_humidity;BME280_pressure;Samples;Min_cycle;Max_cycle;Signal;HPM_P1;HPM_P2
2022/01/20 00:07:31;;;;;;;3.17;2.50;;;5.50;95.90;;;;;;20919495;28;20235;-69
2022/01/20 00:28:02;;;;;;;2.90;2.17;;;5.50;96.20;;;;;;20918242;28;20232;-78
2022/01/20 00:38:04;;;;;;;2.53;2.10;;;5.40;96.20;;;;;;20918274;28;20208;-76
2022/01/20 00:48:06;;;;;;;2.13;1.93;;;5.50;96.30;;;;;;20915964;28;20240;-65
2022/01/20 00:58:08;;;;;;;3.10;2.33;;;5.60;96.60;;;;;;20915343;28;20204;-78
2022/01/20 01:08:11;;;;;;;2.20;2.00;;;5.70;96.50;;;;;;20914746;28;20236;-67
2022/01/20 01:28:36;;;;;;;3.80;2.57;;;5.70;96.70;;;;;;20912727;28;20257;-67
2022/01/20 01:38:39;;;;;;;3.23;2.50;;;5.70;96.70;;;;;;20912843;28;20203;-67
2022/01/20 01:48:42;;;;;;;3.90;2.90;;;5.80;96.80;;;;;;20912021;28;20240;-70
2022/01/20 01:58:44;;;;;;;2.97;2.63;;;5.80;96.90;;;;;;20912221;28;20614;-70
2022/01/20 02:19:27;;;;;;;3.40;3.10;;;5.90;97.00;;;;;;20922293;28;20266;-76
2022/01/20 02:29:29;;;;;;;3.77;3.30;;;5.90;97.40;;;;;;20928682;28;20289;-76
2022/01/20 02:49:38;;;;;;;5.83;3.93;;;5.80;97.70;;;;;;20925249;28;20306;-64
2022/01/20 02:59:40;;;;;;;5.60;3.73;;;5.80;97.60;;;;;;20925513;28;20720;-77
2022/01/20 03:09:42;;;;;;;5.27;4.00;;;5.80;97.90;;;;;;20924650;28;20251;-72
2022/01/20 03:19:44;;;;;;;5.63;3.93;;;5.90;97.60;;;;;;20919603;28;20216;-67
2022/01/20 03:29:46;;;;;;;5.80;4.00;;;6.00;97.50;;;;;;20919980;28;20292;-63
2022/01/20 03:39:47;;;;;;;6.53;4.13;;;6.00;97.40;;;;;;20921973;28;20204;-64
2022/01/20 03:50:07;;;;;;;8.70;4.27;;;6.00;97.30;;;;;;20920543;28;20249;-64
2022/01/20 04:00:10;;;;;;;9.27;4.10;;;6.10;97.60;;;;;;20919899;28;20205;-65
2022/01/20 04:10:12;;;;;;;11.17;4.90;;;6.20;97.40;;;;;;20918415;28;20285;-63
2022/01/20 04:20:16;;;;;;;9.80;4.27;;;6.20;97.00;;;;;;20924551;28;20204;-66
2022/01/20 04:30:18;;;;;;;10.40;5.10;;;6.10;96.70;;;;;;20924319;28;20292;-72
2022/01/20 04:40:20;;;;;;;11.27;5.17;;;6.10;97.00;;;;;;20917798;28;20205;-65
2022/01/20 05:00:42;;;;;;;10.70;5.23;;;5.80;96.80;;;;;;20916616;28;20258;-70
2022/01/20 05:10:44;;;;;;;7.90;4.10;;;5.80;96.80;;;;;;20914960;28;20328;-76
2022/01/20 05:20:46;;;;;;;10.43;4.17;;;5.70;96.70;;;;;;20908301;28;20212;-76
2022/01/20 05:30:48;;;;;;;11.40;4.43;;;5.50;96.80;;;;;;20905049;28;20459;-75
2022/01/20 05:40:51;;;;;;;12.77;4.27;;;6.00;96.60;;;;;;20912886;28;20209;-65
2022/01/20 05:54:53;;;;;;;8.63;4.67;;;5.40;96.30;;;;;;20983716;28;20558;-65
2022/01/20 06:04:55;;;;;;;17.20;4.80;;;5.30;96.40;;;;;;20983147;28;20211;-75
2022/01/20 06:14:56;;;;;;;16.87;5.37;;;5.40;96.50;;;;;;20982277;28;20285;-75
2022/01/20 06:24:58;;;;;;;14.87;5.33;;;5.40;96.40;;;;;;20981663;28;20236;-68
2022/01/20 06:35:00;;;;;;;15.90;5.57;;;5.40;96.20;;;;;;20980532;28;20663;-73
2022/01/20 06:45:08;;;;;;;12.23;4.97;;;5.40;96.50;;;;;;20980228;28;20239;-72
2022/01/20 06:55:12;;;;;;;19.48;6.05;;;5.30;96.40;;;;;;20978795;28;20440;-66
2022/01/20 07:05:16;;;;;;;15.17;5.10;;;5.20;96.20;;;;;;20927300;28;20204;-68
2022/01/20 07:15:19;;;;;;;20.07;6.87;;;5.30;96.50;;;;;;20918561;28;20518;-74
2022/01/20 07:25:20;;;;;;;12.97;4.73;;;5.40;96.20;;;;;;20868045;28;20229;-75
2022/01/20 07:35:22;;;;;;;15.57;4.60;;;5.50;96.10;;;;;;20836869;28;20343;-68
2022/01/20 07:45:25;;;;;;;10.97;4.00;;;5.50;95.80;;;;;;20836606;28;20244;-64
2022/01/20 07:55:27;;;;;;;10.27;3.80;;;5.50;96.10;;;;;;20835086;28;20207;-64
2022/01/20 08:05:28;;;;;;;9.13;3.43;;;5.70;95.90;;;;;;20840773;28;20232;-69
2022/01/20 08:15:30;;;;;;;13.63;3.77;;;5.80;95.60;;;;;;20836348;28;20223;-67
2022/01/20 08:25:34;;;;;;;7.70;2.90;;;5.80;95.80;;;;;;20834561;28;20311;-65
2022/01/20 08:35:36;;;;;;;8.57;2.87;;;6.00;95.50;;;;;;20832053;28;20296;-64
2022/01/20 08:45:39;;;;;;;10.33;2.93;;;5.90;95.50;;;;;;20832152;28;20239;-69
2022/01/20 08:55:41;;;;;;;10.10;3.00;;;6.00;95.90;;;;;;20832492;28;20209;-75
2022/01/20 09:05:43;;;;;;;11.90;2.83;;;5.80;95.80;;;;;;20831952;28;20646;-75
2022/01/20 09:15:44;;;;;;;9.73;2.80;;;5.80;95.90;;;;;;20833510;28;20217;-68
2022/01/20 09:25:49;;;;;;;11.10;2.67;;;5.80;95.80;;;;;;20830113;28;20230;-64
2022/01/20 09:35:52;;;;;;;10.40;2.57;;;5.80;95.80;;;;;;20831134;28;20260;-72
2022/01/20 09:45:57;;;;;;;10.20;2.40;;;5.90;95.90;;;;;;20833301;28;20241;-66
2022/01/20 09:55:59;;;;;;;9.30;2.47;;;6.00;95.90;;;;;;20827744;28;20210;-69
2022/01/20 10:06:00;;;;;;;7.07;2.40;;;6.00;96.00;;;;;;20827629;28;20244;-64
2022/01/20 10:16:07;;;;;;;7.57;4.00;;;6.00;96.20;;;;;;20827029;28;20304;-62
2022/01/20 10:26:18;;;;;;;3.63;1.63;;;6.00;96.40;;;;;;20826400;28;20233;-70
2022/01/20 10:36:21;;;;;;;5.83;2.50;;;4.90;95.50;;;;;;20833934;28;20216;-68
2022/01/20 10:46:23;;;;;;;3.83;1.17;;;4.10;95.50;;;;;;20841143;28;20267;-62
2022/01/20 10:56:25;;;;;;;2.90;1.53;;;3.80;96.80;;;;;;20839888;28;20652;-64
2022/01/20 11:06:29;;;;;;;4.63;2.07;;;4.00;97.40;;;;;;20839519;28;20227;-68
2022/01/20 11:16:38;;;;;;;5.47;2.10;;;4.20;97.40;;;;;;20838656;28;20300;-63
2022/01/20 11:27:01;;;;;;;9.63;1.73;;;4.60;96.50;;;;;;20837564;28;20250;-63
2022/01/20 11:37:08;;;;;;;6.63;2.03;;;4.70;94.40;;;;;;20836670;28;20205;-63
2022/01/20 11:47:32;;;;;;;4.53;1.60;;;4.90;93.70;;;;;;20837771;28;20249;-64
2022/01/20 11:57:34;;;;;;;26.10;1.90;;;5.30;92.80;;;;;;20836624;28;20205;-68
2022/01/20 12:07:35;;;;;;;10.73;1.90;;;5.30;93.00;;;;;;20835293;28;20266;-76
2022/01/20 12:17:41;;;;;;;6.07;1.43;;;5.20;88.20;;;;;;20833822;28;20262;-73
2022/01/20 12:27:43;;;;;;;5.70;1.70;;;5.30;86.50;;;;;;20831704;28;21057;-73
2022/01/20 12:37:45;;;;;;;11.90;2.95;;;5.40;86.50;;;;;;20876312;28;20435;-70
2022/01/20 12:47:47;;;;;;;12.40;2.20;;;5.60;84.80;;;;;;20896549;28;20260;-70
2022/01/20 12:57:58;;;;;;;6.43;2.00;;;4.80;89.80;;;;;;20831745;28;20212;-77
2022/01/20 13:08:00;;;;;;;7.83;1.80;;;4.80;90.20;;;;;;20832896;28;20247;-76
2022/01/20 13:18:08;;;;;;;7.13;1.90;;;5.40;89.50;;;;;;20828371;28;20441;-76
2022/01/20 13:28:11;;;;;;;7.17;1.47;;;5.70;86.00;;;;;;20911877;28;20295;-72
2022/01/20 13:38:14;;;;;;;5.50;1.57;;;5.80;85.10;;;;;;20912514;28;20803;-70
2022/01/20 13:48:26;;;;;;;6.93;1.90;;;5.10;88.10;;;;;;20913350;28;20247;-75
2022/01/20 13:58:30;;;;;;;7.17;2.40;;;4.70;91.40;;;;;;20911303;28;20219;-75
2022/01/20 14:08:36;;;;;;;9.03;2.40;;;4.70;91.80;;;;;;20913267;28;20289;-74
2022/01/20 14:18:46;;;;;;;9.00;2.10;;;4.70;91.60;;;;;;20926574;28;20203;-72
2022/01/20 14:28:47;;;;;;;12.47;1.97;;;4.90;90.60;;;;;;20925464;28;20240;-63
2022/01/20 14:38:49;;;;;;;9.50;2.20;;;4.90;89.40;;;;;;20922298;28;20494;-67
2022/01/20 14:48:51;;;;;;;4.83;1.40;;;5.40;83.50;;;;;;20925457;28;20248;-67
2022/01/20 14:58:52;;;;;;;8.33;1.60;;;5.00;82.90;;;;;;20922314;28;20200;-69
2022/01/20 15:08:54;;;;;;;8.23;1.80;;;5.00;83.70;;;;;;20923131;28;20227;-69
2022/01/20 15:18:56;;;;;;;7.93;1.37;;;4.80;82.90;;;;;;20921489;28;20207;-63
2022/01/20 15:28:58;;;;;;;9.07;2.10;;;4.80;83.80;;;;;;20921649;28;20273;-70
2022/01/20 15:39:00;;;;;;;6.47;1.70;;;4.80;83.90;;;;;;20919132;28;20223;-72
2022/01/20 15:49:06;;;;;;;6.63;1.90;;;4.80;83.50;;;;;;20919224;28;20240;-67
2022/01/20 15:59:10;;;;;;;3.30;1.50;;;4.80;82.90;;;;;;20919428;28;20261;-69
2022/01/20 16:09:12;;;;;;;6.30;1.80;;;4.80;82.50;;;;;;20918020;28;20286;-61
2022/01/20 16:19:13;;;;;;;5.63;1.40;;;4.70;82.20;;;;;;20917348;28;20208;-64
2022/01/20 16:29:18;;;;;;;6.27;1.90;;;4.60;82.10;;;;;;20914913;28;20244;-63
2022/01/20 16:39:20;;;;;;;6.93;2.03;;;4.60;81.60;;;;;;20915714;28;20208;-64
2022/01/20 16:49:23;;;;;;;5.07;2.10;;;4.70;81.40;;;;;;20915123;28;20251;-66
2022/01/20 16:59:25;;;;;;;7.10;2.40;;;4.60;82.10;;;;;;20914707;28;20249;-61
2022/01/20 17:09:26;;;;;;;7.83;2.60;;;4.60;83.00;;;;;;20915149;28;20615;-64
2022/01/20 17:19:28;;;;;;;7.10;2.93;;;4.60;83.40;;;;;;20912955;28;20208;-60
2022/01/20 17:29:31;;;;;;;9.47;2.47;;;4.60;84.60;;;;;;20910663;28;20568;-65
2022/01/20 17:39:32;;;;;;;6.40;2.70;;;4.70;85.10;;;;;;20896760;28;20667;-60
2022/01/20 17:49:34;;;;;;;13.60;2.37;;;4.60;86.00;;;;;;20881250;28;20305;-64
2022/01/20 17:59:36;;;;;;;10.48;3.35;;;4.60;87.00;;;;;;20903981;28;20440;-61
2022/01/20 18:09:38;;;;;;;11.27;3.27;;;5.00;88.00;;;;;;20908890;28;20232;-63
2022/01/20 18:19:40;;;;;;;9.40;3.10;;;4.30;89.70;;;;;;20908628;28;20234;-69
2022/01/20 18:29:42;;;;;;;10.80;3.70;;;4.30;90.40;;;;;;20907932;28;20698;-63
2022/01/20 18:39:44;;;;;;;11.47;3.60;;;4.30;90.70;;;;;;20910154;28;20721;-75
2022/01/20 18:49:45;;;;;;;10.33;3.03;;;4.30;90.90;;;;;;20908267;28;20236;-70
2022/01/20 18:59:47;;;;;;;9.73;3.60;;;4.10;90.70;;;;;;20925331;28;20228;-63
2022/01/20 19:09:49;;;;;;;10.10;3.63;;;4.10;90.30;;;;;;20932119;28;20663;-71
2022/01/20 19:19:51;;;;;;;8.93;2.67;;;4.20;90.40;;;;;;20928384;28;20208;-67
2022/01/20 19:29:53;;;;;;;7.27;2.90;;;4.10;88.80;;;;;;20924186;28;20236;-66
2022/01/20 19:39:54;;;;;;;10.87;3.87;;;4.00;88.50;;;;;;20922447;28;20608;-66
2022/01/20 19:49:56;;;;;;;8.10;2.93;;;4.00;88.70;;;;;;20920645;28;20235;-60
2022/01/20 19:59:58;;;;;;;6.97;2.67;;;4.10;87.80;;;;;;20919893;28;20674;-64
2022/01/20 20:10:00;;;;;;;10.77;2.87;;;4.10;88.50;;;;;;20917383;28;21027;-66
2022/01/20 20:20:04;;;;;;;9.97;3.20;;;4.20;88.70;;;;;;20915002;28;20204;-64
2022/01/20 20:30:07;;;;;;;4.57;2.60;;;4.30;88.80;;;;;;20915494;28;20632;-65
2022/01/20 20:40:10;;;;;;;10.70;3.63;;;4.30;88.70;;;;;;20852986;28;20863;-66
2022/01/20 20:50:13;;;;;;;7.57;2.80;;;4.90;88.10;;;;;;20844631;28;20293;-65
2022/01/20 21:00:16;;;;;;;9.30;3.30;;;4.50;86.80;;;;;;20914164;28;20988;-66
2022/01/20 21:10:18;;;;;;;6.33;2.60;;;4.30;87.30;;;;;;20915799;28;20243;-73
2022/01/20 21:20:19;;;;;;;10.20;3.70;;;4.40;87.60;;;;;;20912159;28;20212;-62
2022/01/20 21:30:21;;;;;;;7.90;3.43;;;4.40;88.80;;;;;;20874191;28;20229;-60
2022/01/20 21:40:23;;;;;;;11.10;5.03;;;3.80;91.00;;;;;;20901152;28;20215;-63
2022/01/20 21:50:25;;;;;;;10.73;4.47;;;3.80;91.40;;;;;;20913175;28;20710;-62
2022/01/20 22:00:27;;;;;;;6.90;3.93;;;3.80;92.30;;;;;;20914281;28;20659;-60
2022/01/20 22:10:39;;;;;;;10.10;4.00;;;3.80;92.70;;;;;;20908680;28;20235;-60
2022/01/20 22:20:41;;;;;;;10.50;4.17;;;3.70;92.90;;;;;;20909909;28;20214;-61
2022/01/20 22:30:44;;;;;;;8.87;3.63;;;3.70;92.60;;;;;;20869867;28;20310;-61
2022/01/20 22:40:46;;;;;;;6.87;3.37;;;3.70;91.70;;;;;;20903245;28;20721;-61
2022/01/20 22:50:49;;;;;;;6.53;2.70;;;3.70;91.20;;;;;;20923997;28;20725;-62
2022/01/20 23:00:53;;;;;;;6.33;2.60;;;3.70;90.40;;;;;;20922223;28;20208;-60
2022/01/20 23:10:55;;;;;;;8.70;2.50;;;3.80;89.70;;;;;;20921479;28;20326;-60
2022/01/20 23:20:58;;;;;;;5.37;2.30;;;3.80;89.50;;;;;;20864041;28;20263;-60
2022/01/20 23:31:01;;;;;;;4.90;1.97;;;3.70;89.00;;;;;;20838635;28;20240;-61
2022/01/20 23:41:09;;;;;;;4.30;2.00;;;3.70;88.80;;;;;;20839243;28;20278;-60
2022/01/20 23:51:11;;;;;;;10.93;2.40;;;3.70;88.60;;;;;;20838931;28;20244;-61
